sensor_id;sensor_type;location;lat;lon;timestamp;P1;durP1;ratioP1;P2;durP2;ratioP2
2023;SDS011;1016;48.770;9.154;2022-08-01T00:00:36;15.20;;;2.70;;
2023;SDS011;1016;48.770;9.154;2022-08-01T00:03:01;15.00;;;2.60;;
2023;SDS011;1016;48.770;9.154;2022-08-01T00:05:27;15.43;;;2.80;;
2023;SDS011;1016;48.770;9.154;2022-08-01T00:07:53;14.30;;;2.80;;
2023;SDS011;1016;48.770;9.154;2022-08-01T00:10:18;14.20;;;2.80;;
2023;SDS011;1016;48.770;9.154;2022-08-01T00:12:45;14.30;;;2.60;;
2023;SDS011;1016;48.770;9.154;2022-08-01T00:15:11;14.10;;;2.67;;
2023;SDS011;1016;48.770;9.154;2022-08-01T00:17:40;14.60;;;2.90;;
2023;SDS011;1016;48.770;9.154;2022-08-01T00:20:07;15.90;;;2.67;;
2023;SDS011;1016;48.770;9.154;2022-08-01T00:22:35;17.80;;;2.90;;
2023;SDS011;1016;48.770;9.154;2022-08-01T00:25:00;17.70;;;3.00;;
2023;SDS011;1016;48.770;9.154;2022-08-01T00:27:26;14.87;;;2.87;;
2023;SDS011;1016;48.770;9.154;2022-08-01T00:29:52;14.20;;;2.77;;
2023;SDS011;1016;48.770;9.154;2022-08-01T00:32:18;15.30;;;2.90;;
2023;SDS011;1016;48.770;9.154;2022-08-01T00:34:43;15.07;;;2.70;;
2023;SDS011;1016;48.770;9.154;2022-08-01T00:37:09;14.87;;;2.90;;
2023;SDS011;1016;48.770;9.154;2022-08-01T00:39:35;14.47;;;2.83;;
2023;SDS011;1016;48.770;9.154;2022-08-01T00:42:05;17.40;;;4.63;;
2023;SDS011;1016;48.770;9.154;2022-08-01T00:44:32;14.00;;;2.37;;
2023;SDS011;1016;48.770;9.154;2022-08-01T00:46:58;14.90;;;2.70;;
2023;SDS011;1016;48.770;9.154;2022-08-01T00:49:24;14.50;;;2.70;;
2023;SDS011;1016;48.770;9.154;2022-08-01T00:51:49;15.00;;;2.60;;
2023;SDS011;1016;48.770;9.154;2022-08-01T00:54:15;14.70;;;2.70;;
2023;SDS011;1016;48.770;9.154;2022-08-01T00:56:41;14.60;;;2.80;;
2023;SDS011;1016;48.770;9.154;2022-08-01T00:59:07;14.50;;;2.70;;
2023;SDS011;1016;48.770;9.154;2022-08-01T01:01:33;14.87;;;2.83;;
2023;SDS011;1016;48.770;9.154;2022-08-01T01:03:59;15.50;;;2.97;;
2023;SDS011;1016;48.770;9.154;2022-08-01T01:09:24;16.77;;;2.90;;
2023;SDS011;1016;48.770;9.154;2022-08-01T01:14:51;14.33;;;2.80;;
2023;SDS011;1016;48.770;9.154;2022-08-01T01:17:44;15.57;;;2.87;;
2023;SDS011;1016;48.770;9.154;2022-08-01T01:20:23;18.20;;;3.03;;
2023;SDS011;1016;48.770;9.154;2022-08-01T01:28:08;14.90;;;3.07;;
2023;SDS011;1016;48.770;9.154;2022-08-01T01:30:35;14.60;;;3.00;;
2023;SDS011;1016;48.770;9.154;2022-08-01T01:33:05;14.67;;;2.87;;
2023;SDS011;1016;48.770;9.154;2022-08-01T01:35:34;14.17;;;2.73;;
2023;SDS011;1016;48.770;9.154;2022-08-01T01:38:04;15.17;;;2.87;;
2023;SDS011;1016;48.770;9.154;2022-08-01T01:40:35;15.27;;;2.70;;
2023;SDS011;1016;48.770;9.154;2022-08-01T01:43:02;15.83;;;3.37;;
2023;SDS011;1016;48.770;9.154;2022-08-01T01:45:29;14.43;;;2.60;;
2023;SDS011;1016;48.770;9.154;2022-08-01T01:47:55;14.23;;;2.60;;
2023;SDS011;1016;48.770;9.154;2022-08-01T01:50:22;14.50;;;2.77;;
2023;SDS011;1016;48.770;9.154;2022-08-01T01:52:49;14.60;;;3.03;;
2023;SDS011;1016;48.770;9.154;2022-08-01T01:55:15;15.60;;;3.03;;
2023;SDS011;1016;48.770;9.154;2022-08-01T01:57:44;15.30;;;3.07;;
2023;SDS011;1016;48.770;9.154;2022-08-01T02:00:11;15.37;;;3.53;;
2023;SDS011;1016;48.770;9.154;2022-08-01T02:02:38;17.20;;;2.80;;
2023;SDS011;1016;48.770;9.154;2022-08-01T02:05:06;15.50;;;2.70;;
2023;SDS011;1016;48.770;9.154;2022-08-01T02:07:34;17.80;;;3.33;;
2023;SDS011;1016;48.770;9.154;2022-08-01T02:10:02;14.40;;;3.10;;
2023;SDS011;1016;48.770;9.154;2022-08-01T02:12:29;15.30;;;2.77;;
2023;SDS011;1016;48.770;9.154;2022-08-01T02:14:59;14.77;;;2.97;;
2023;SDS011;1016;48.770;9.154;2022-08-01T02:17:26;14.30;;;2.87;;
2023;SDS011;1016;48.770;9.154;2022-08-01T02:19:54;13.93;;;2.70;;
2023;SDS011;1016;48.770;9.154;2022-08-01T02:22:27;14.10;;;2.53;;
2023;SDS011;1016;48.770;9.154;2022-08-01T02:27:37;15.00;;;3.13;;
2023;SDS011;1016;48.770;9.154;2022-08-01T02:30:08;15.87;;;3.17;;
2023;SDS011;1016;48.770;9.154;2022-08-01T02:32:38;16.40;;;2.70;;
2023;SDS011;1016;48.770;9.154;2022-08-01T02:35:09;15.67;;;3.30;;
2023;SDS011;1016;48.770;9.154;2022-08-01T02:37:44;15.93;;;3.50;;
2023;SDS011;1016;48.770;9.154;2022-08-01T02:40:12;14.33;;;2.77;;
2023;SDS011;1016;48.770;9.154;2022-08-01T02:42:42;15.17;;;2.90;;
2023;SDS011;1016;48.770;9.154;2022-08-01T02:45:12;15.17;;;3.00;;
2023;SDS011;1016;48.770;9.154;2022-08-01T02:47:38;15.50;;;3.10;;
2023;SDS011;1016;48.770;9.154;2022-08-01T02:50:06;14.90;;;3.20;;
2023;SDS011;1016;48.770;9.154;2022-08-01T02:52:36;15.97;;;2.60;;
2023;SDS011;1016;48.770;9.154;2022-08-01T02:55:03;14.90;;;2.70;;
2023;SDS011;1016;48.770;9.154;2022-08-01T02:57:29;14.13;;;2.90;;
2023;SDS011;1016;48.770;9.154;2022-08-01T02:59:58;15.17;;;2.97;;
2023;SDS011;1016;48.770;9.154;2022-08-01T03:02:24;15.00;;;2.63;;
2023;SDS011;1016;48.770;9.154;2022-08-01T03:04:51;14.00;;;2.87;;
2023;SDS011;1016;48.770;9.154;2022-08-01T03:07:18;14.60;;;2.97;;
2023;SDS011;1016;48.770;9.154;2022-08-01T03:09:45;14.70;;;3.10;;
2023;SDS011;1016;48.770;9.154;2022-08-01T03:12:14;15.57;;;2.40;;
2023;SDS011;1016;48.770;9.154;2022-08-01T03:14:44;15.27;;;2.90;;
2023;SDS011;1016;48.770;9.154;2022-08-01T03:17:12;14.60;;;3.17;;
2023;SDS011;1016;48.770;9.154;2022-08-01T03:19:38;15.67;;;2.80;;
2023;SDS011;1016;48.770;9.154;2022-08-01T03:22:05;14.60;;;3.00;;
2023;SDS011;1016;48.770;9.154;2022-08-01T03:24:34;14.90;;;2.70;;
2023;SDS011;1016;48.770;9.154;2022-08-01T03:27:02;14.10;;;2.63;;
2023;SDS011;1016;48.770;9.154;2022-08-01T03:29:29;14.77;;;2.50;;
2023;SDS011;1016;48.770;9.154;2022-08-01T03:31:56;15.10;;;2.60;;
2023;SDS011;1016;48.770;9.154;2022-08-01T03:34:23;13.90;;;2.47;;
2023;SDS011;1016;48.770;9.154;2022-08-01T03:36:49;14.03;;;2.57;;
2023;SDS011;1016;48.770;9.154;2022-08-01T03:39:33;15.67;;;2.80;;
2023;SDS011;1016;48.770;9.154;2022-08-01T03:42:07;14.00;;;2.70;;
2023;SDS011;1016;48.770;9.154;2022-08-01T03:44:48;16.30;;;2.90;;
2023;SDS011;1016;48.770;9.154;2022-08-01T03:47:19;13.80;;;2.37;;
2023;SDS011;1016;48.770;9.154;2022-08-01T03:49:50;15.00;;;2.70;;
2023;SDS011;1016;48.770;9.154;2022-08-01T03:52:17;13.97;;;2.30;;
2023;SDS011;1016;48.770;9.154;2022-08-01T03:54:46;13.93;;;2.50;;
2023;SDS011;1016;48.770;9.154;2022-08-01T03:57:14;14.50;;;2.70;;
2023;SDS011;1016;48.770;9.154;2022-08-01T03:59:40;14.20;;;2.53;;
2023;SDS011;1016;48.770;9.154;2022-08-01T04:02:07;14.57;;;2.60;;
2023;SDS011;1016;48.770;9.154;2022-08-01T04:04:33;14.70;;;2.40;;
2023;SDS011;1016;48.770;9.154;2022-08-01T04:06:59;15.53;;;2.77;;
2023;SDS011;1016;48.770;9.154;2022-08-01T04:09:29;14.17;;;2.60;;
2023;SDS011;1016;48.770;9.154;2022-08-01T04:11:56;15.00;;;2.80;;
2023;SDS011;1016;48.770;9.154;2022-08-01T04:14:22;13.83;;;2.10;;
2023;SDS011;1016;48.770;9.154;2022-08-01T04:16:48;15.80;;;2.57;;
2023;SDS011;1016;48.770;9.154;2022-08-01T04:19:14;13.83;;;2.30;;
2023;SDS011;1016;48.770;9.154;2022-08-01T04:21:40;13.90;;;2.50;;
2023;SDS011;1016;48.770;9.154;2022-08-01T04:24:12;13.90;;;2.23;;
2023;SDS011;1016;48.770;9.154;2022-08-01T04:26:41;13.73;;;2.47;;
2023;SDS011;1016;48.770;9.154;2022-08-01T04:29:09;14.90;;;2.70;;
2023;SDS011;1016;48.770;9.154;2022-08-01T04:31:35;15.13;;;2.53;;
2023;SDS011;1016;48.770;9.154;2022-08-01T04:34:04;13.77;;;2.23;;
2023;SDS011;1016;48.770;9.154;2022-08-01T04:36:32;15.03;;;2.50;;
2023;SDS011;1016;48.770;9.154;2022-08-01T04:39:01;14.50;;;2.50;;
2023;SDS011;1016;48.770;9.154;2022-08-01T04:41:29;14.43;;;2.27;;
2023;SDS011;1016;48.770;9.154;2022-08-01T04:43:57;14.93;;;2.43;;
2023;SDS011;1016;48.770;9.154;2022-08-01T04:46:24;14.20;;;2.33;;
2023;SDS011;1016;48.770;9.154;2022-08-01T04:48:50;15.50;;;2.47;;
2023;SDS011;1016;48.770;9.154;2022-08-01T04:51:17;14.00;;;2.33;;
2023;SDS011;1016;48.770;9.154;2022-08-01T04:53:43;14.10;;;2.13;;
2023;SDS011;1016;48.770;9.154;2022-08-01T04:56:10;15.43;;;2.70;;
2023;SDS011;1016;48.770;9.154;2022-08-01T04:58:38;14.80;;;2.20;;
2023;SDS011;1016;48.770;9.154;2022-08-01T05:01:05;14.07;;;2.27;;
2023;SDS011;1016;48.770;9.154;2022-08-01T05:03:30;14.93;;;2.33;;
2023;SDS011;1016;48.770;9.154;2022-08-01T05:05:56;17.10;;;2.13;;
2023;SDS011;1016;48.770;9.154;2022-08-01T05:08:21;13.63;;;2.10;;
2023;SDS011;1016;48.770;9.154;2022-08-01T05:10:47;14.47;;;2.10;;
2023;SDS011;1016;48.770;9.154;2022-08-01T05:13:12;15.30;;;2.30;;
2023;SDS011;1016;48.770;9.154;2022-08-01T05:15:38;14.53;;;2.30;;
2023;SDS011;1016;48.770;9.154;2022-08-01T05:18:04;13.63;;;2.20;;
2023;SDS011;1016;48.770;9.154;2022-08-01T05:20:30;15.00;;;2.03;;
2023;SDS011;1016;48.770;9.154;2022-08-01T05:22:56;17.00;;;2.47;;
2023;SDS011;1016;48.770;9.154;2022-08-01T05:25:22;15.40;;;2.20;;
2023;SDS011;1016;48.770;9.154;2022-08-01T05:27:48;15.23;;;2.47;;
2023;SDS011;1016;48.770;9.154;2022-08-01T05:30:15;14.20;;;2.17;;
2023;SDS011;1016;48.770;9.154;2022-08-01T05:32:41;14.30;;;2.30;;
2023;SDS011;1016;48.770;9.154;2022-08-01T05:35:07;14.60;;;2.30;;
2023;SDS011;1016;48.770;9.154;2022-08-01T05:37:33;14.00;;;2.37;;
2023;SDS011;1016;48.770;9.154;2022-08-01T05:39:59;13.77;;;2.10;;
2023;SDS011;1016;48.770;9.154;2022-08-01T05:42:24;15.73;;;2.07;;
2023;SDS011;1016;48.770;9.154;2022-08-01T05:44:50;15.20;;;1.83;;
2023;SDS011;1016;48.770;9.154;2022-08-01T05:47:16;13.80;;;1.80;;
2023;SDS011;1016;48.770;9.154;2022-08-01T05:49:41;13.90;;;2.03;;
2023;SDS011;1016;48.770;9.154;2022-08-01T05:52:07;14.00;;;2.13;;
2023;SDS011;1016;48.770;9.154;2022-08-01T05:54:33;13.97;;;2.00;;
2023;SDS011;1016;48.770;9.154;2022-08-01T05:56:59;14.80;;;2.17;;
2023;SDS011;1016;48.770;9.154;2022-08-01T05:59:26;14.30;;;2.30;;
2023;SDS011;1016;48.770;9.154;2022-08-01T06:01:52;14.40;;;1.90;;
2023;SDS011;1016;48.770;9.154;2022-08-01T06:04:18;13.67;;;2.20;;
2023;SDS011;1016;48.770;9.154;2022-08-01T06:06:43;13.80;;;2.10;;
2023;SDS011;1016;48.770;9.154;2022-08-01T06:09:09;13.70;;;1.90;;
2023;SDS011;1016;48.770;9.154;2022-08-01T06:11:34;14.23;;;2.10;;
2023;SDS011;1016;48.770;9.154;2022-08-01T06:14:00;13.80;;;2.10;;
2023;SDS011;1016;48.770;9.154;2022-08-01T06:16:25;14.27;;;1.90;;
2023;SDS011;1016;48.770;9.154;2022-08-01T06:18:51;14.00;;;1.90;;
2023;SDS011;1016;48.770;9.154;2022-08-01T06:21:17;14.27;;;2.00;;
2023;SDS011;1016;48.770;9.154;2022-08-01T06:23:42;14.30;;;2.00;;
2023;SDS011;1016;48.770;9.154;2022-08-01T06:26:08;14.80;;;2.17;;
2023;SDS011;1016;48.770;9.154;2022-08-01T06:28:34;14.70;;;2.00;;
2023;SDS011;1016;48.770;9.154;2022-08-01T06:30:59;14.10;;;1.97;;
2023;SDS011;1016;48.770;9.154;2022-08-01T06:33:26;15.00;;;2.00;;
2023;SDS011;1016;48.770;9.154;2022-08-01T06:35:52;14.33;;;2.03;;
2023;SDS011;1016;48.770;9.154;2022-08-01T06:38:17;14.07;;;1.97;;
2023;SDS011;1016;48.770;9.154;2022-08-01T06:40:43;13.27;;;2.03;;
2023;SDS011;1016;48.770;9.154;2022-08-01T06:43:08;13.50;;;1.90;;
2023;SDS011;1016;48.770;9.154;2022-08-01T06:45:36;13.77;;;1.80;;
2023;SDS011;1016;48.770;9.154;2022-08-01T06:48:02;14.40;;;2.03;;
2023;SDS011;1016;48.770;9.154;2022-08-01T06:50:28;14.43;;;1.90;;
2023;SDS011;1016;48.770;9.154;2022-08-01T06:52:54;14.93;;;2.20;;
2023;SDS011;1016;48.770;9.154;2022-08-01T06:55:20;13.77;;;1.73;;
2023;SDS011;1016;48.770;9.154;2022-08-01T06:57:49;14.83;;;3.13;;
2023;SDS011;1016;48.770;9.154;2022-08-01T07:00:16;14.03;;;2.10;;
2023;SDS011;1016;48.770;9.154;2022-08-01T07:02:44;14.07;;;2.20;;
2023;SDS011;1016;48.770;9.154;2022-08-01T07:05:10;14.00;;;1.90;;
2023;SDS011;1016;48.770;9.154;2022-08-01T07:07:36;13.70;;;2.17;;
2023;SDS011;1016;48.770;9.154;2022-08-01T07:10:02;14.10;;;2.10;;
2023;SDS011;1016;48.770;9.154;2022-08-01T07:12:28;13.33;;;1.80;;
2023;SDS011;1016;48.770;9.154;2022-08-01T07:14:53;14.73;;;2.10;;
2023;SDS011;1016;48.770;9.154;2022-08-01T07:17:19;13.67;;;2.17;;
2023;SDS011;1016;48.770;9.154;2022-08-01T07:19:45;14.77;;;2.00;;
2023;SDS011;1016;48.770;9.154;2022-08-01T07:22:11;13.43;;;1.80;;
2023;SDS011;1016;48.770;9.154;2022-08-01T07:24:37;14.23;;;1.97;;
2023;SDS011;1016;48.770;9.154;2022-08-01T07:27:02;16.40;;;2.10;;
2023;SDS011;1016;48.770;9.154;2022-08-01T07:29:28;15.47;;;2.37;;
2023;SDS011;1016;48.770;9.154;2022-08-01T07:31:54;15.20;;;2.00;;
2023;SDS011;1016;48.770;9.154;2022-08-01T07:34:21;13.70;;;1.90;;
2023;SDS011;1016;48.770;9.154;2022-08-01T07:36:47;15.03;;;2.10;;
2023;SDS011;1016;48.770;9.154;2022-08-01T07:39:13;14.30;;;2.40;;
2023;SDS011;1016;48.770;9.154;2022-08-01T07:41:38;13.87;;;1.80;;
2023;SDS011;1016;48.770;9.154;2022-08-01T07:44:04;14.77;;;2.00;;
2023;SDS011;1016;48.770;9.154;2022-08-01T07:46:29;13.73;;;1.93;;
2023;SDS011;1016;48.770;9.154;2022-08-01T07:48:55;13.70;;;2.00;;
2023;SDS011;1016;48.770;9.154;2022-08-01T07:51:21;15.17;;;2.10;;
2023;SDS011;1016;48.770;9.154;2022-08-01T07:53:47;14.30;;;1.93;;
2023;SDS011;1016;48.770;9.154;2022-08-01T07:56:13;14.50;;;2.07;;
2023;SDS011;1016;48.770;9.154;2022-08-01T07:58:38;13.87;;;2.50;;
2023;SDS011;1016;48.770;9.154;2022-08-01T08:01:04;14.63;;;2.47;;
2023;SDS011;1016;48.770;9.154;2022-08-01T08:03:29;14.80;;;2.60;;
2023;SDS011;1016;48.770;9.154;2022-08-01T08:05:55;14.53;;;2.27;;
2023;SDS011;1016;48.770;9.154;2022-08-01T08:08:21;14.50;;;2.43;;
2023;SDS011;1016;48.770;9.154;2022-08-01T08:10:46;14.67;;;2.60;;
2023;SDS011;1016;48.770;9.154;2022-08-01T08:13:12;14.30;;;2.80;;
2023;SDS011;1016;48.770;9.154;2022-08-01T08:15:37;14.37;;;2.60;;
2023;SDS011;1016;48.770;9.154;2022-08-01T08:18:03;15.23;;;2.90;;
2023;SDS011;1016;48.770;9.154;2022-08-01T08:20:29;14.80;;;2.90;;
2023;SDS011;1016;48.770;9.154;2022-08-01T08:22:55;14.60;;;2.47;;
2023;SDS011;1016;48.770;9.154;2022-08-01T08:25:23;14.10;;;2.60;;
2023;SDS011;1016;48.770;9.154;2022-08-01T08:27:48;17.20;;;2.27;;
2023;SDS011;1016;48.770;9.154;2022-08-01T08:30:14;17.17;;;2.40;;
2023;SDS011;1016;48.770;9.154;2022-08-01T08:32:40;15.67;;;2.40;;
2023;SDS011;1016;48.770;9.154;2022-08-01T08:35:06;14.50;;;2.63;;
2023;SDS011;1016;48.770;9.154;2022-08-01T08:37:33;15.20;;;2.70;;
2023;SDS011;1016;48.770;9.154;2022-08-01T08:40:00;20.90;;;2.70;;
2023;SDS011;1016;48.770;9.154;2022-08-01T08:42:25;16.30;;;2.97;;
2023;SDS011;1016;48.770;9.154;2022-08-01T08:44:51;18.40;;;3.30;;
2023;SDS011;1016;48.770;9.154;2022-08-01T08:47:19;21.43;;;3.93;;
2023;SDS011;1016;48.770;9.154;2022-08-01T08:49:46;16.80;;;3.77;;
2023;SDS011;1016;48.770;9.154;2022-08-01T08:52:13;15.50;;;3.50;;
2023;SDS011;1016;48.770;9.154;2022-08-01T08:54:40;15.80;;;3.17;;
2023;SDS011;1016;48.770;9.154;2022-08-01T08:57:06;14.50;;;2.83;;
2023;SDS011;1016;48.770;9.154;2022-08-01T08:59:32;15.90;;;3.20;;
2023;SDS011;1016;48.770;9.154;2022-08-01T09:01:58;16.80;;;4.10;;
2023;SDS011;1016;48.770;9.154;2022-08-01T09:04:24;15.67;;;3.30;;
2023;SDS011;1016;48.770;9.154;2022-08-01T09:06:50;15.23;;;3.10;;
2023;SDS011;1016;48.770;9.154;2022-08-01T09:09:16;15.30;;;3.20;;
2023;SDS011;1016;48.770;9.154;2022-08-01T09:11:42;15.53;;;3.90;;
2023;SDS011;1016;48.770;9.154;2022-08-01T09:14:15;15.97;;;3.90;;
2023;SDS011;1016;48.770;9.154;2022-08-01T09:17:09;16.70;;;3.53;;
2023;SDS011;1016;48.770;9.154;2022-08-01T09:19:43;15.60;;;3.90;;
2023;SDS011;1016;48.770;9.154;2022-08-01T09:22:13;17.23;;;4.00;;
2023;SDS011;1016;48.770;9.154;2022-08-01T09:25:03;18.67;;;5.10;;
2023;SDS011;1016;48.770;9.154;2022-08-01T09:27:34;19.73;;;5.73;;
2023;SDS011;1016;48.770;9.154;2022-08-01T09:30:09;18.53;;;6.00;;
2023;SDS011;1016;48.770;9.154;2022-08-01T09:35:29;16.57;;;5.20;;
2023;SDS011;1016;48.770;9.154;2022-08-01T09:40:50;17.50;;;6.80;;
2023;SDS011;1016;48.770;9.154;2022-08-01T09:43:20;19.90;;;7.17;;
2023;SDS011;1016;48.770;9.154;2022-08-01T09:45:47;20.50;;;7.60;;
2023;SDS011;1016;48.770;9.154;2022-08-01T09:48:12;18.63;;;7.37;;
2023;SDS011;1016;48.770;9.154;2022-08-01T09:50:39;18.83;;;6.80;;
2023;SDS011;1016;48.770;9.154;2022-08-01T09:53:06;18.57;;;6.20;;
2023;SDS011;1016;48.770;9.154;2022-08-01T09:55:32;19.57;;;6.00;;
2023;SDS011;1016;48.770;9.154;2022-08-01T09:57:58;17.00;;;5.17;;
2023;SDS011;1016;48.770;9.154;2022-08-01T10:00:25;16.47;;;4.93;;
2023;SDS011;1016;48.770;9.154;2022-08-01T10:02:51;18.90;;;6.23;;
2023;SDS011;1016;48.770;9.154;2022-08-01T10:05:17;17.93;;;5.63;;
2023;SDS011;1016;48.770;9.154;2022-08-01T10:07:55;18.57;;;5.80;;
2023;SDS011;1016;48.770;9.154;2022-08-01T10:10:26;18.50;;;6.37;;
2023;SDS011;1016;48.770;9.154;2022-08-01T10:12:52;17.23;;;5.33;;
2023;SDS011;1016;48.770;9.154;2022-08-01T10:15:19;15.70;;;4.80;;
2023;SDS011;1016;48.770;9.154;2022-08-01T10:17:53;15.73;;;5.10;;
2023;SDS011;1016;48.770;9.154;2022-08-01T10:20:26;17.13;;;5.23;;
2023;SDS011;1016;48.770;9.154;2022-08-01T10:22:54;16.17;;;4.67;;
2023;SDS011;1016;48.770;9.154;2022-08-01T10:25:22;16.90;;;5.03;;
2023;SDS011;1016;48.770;9.154;2022-08-01T10:27:52;16.07;;;4.60;;
2023;SDS011;1016;48.770;9.154;2022-08-01T10:30:21;15.80;;;4.07;;
2023;SDS011;1016;48.770;9.154;2022-08-01T10:32:47;15.83;;;4.07;;
2023;SDS011;1016;48.770;9.154;2022-08-01T10:35:13;15.63;;;3.70;;
2023;SDS011;1016;48.770;9.154;2022-08-01T10:37:43;15.40;;;3.97;;
2023;SDS011;1016;48.770;9.154;2022-08-01T10:40:11;15.33;;;3.73;;
2023;SDS011;1016;48.770;9.154;2022-08-01T10:42:39;15.50;;;3.70;;
2023;SDS011;1016;48.770;9.154;2022-08-01T10:45:11;15.00;;;3.50;;
2023;SDS011;1016;48.770;9.154;2022-08-01T10:47:40;14.50;;;3.00;;
2023;SDS011;1016;48.770;9.154;2022-08-01T10:50:21;14.80;;;3.37;;
2023;SDS011;1016;48.770;9.154;2022-08-01T10:58:22;15.30;;;3.10;;
2023;SDS011;1016;48.770;9.154;2022-08-01T11:00:49;15.23;;;3.33;;
2023;SDS011;1016;48.770;9.154;2022-08-01T11:06:35;15.90;;;4.40;;
2023;SDS011;1016;48.770;9.154;2022-08-01T11:09:15;16.00;;;4.80;;
2023;SDS011;1016;48.770;9.154;2022-08-01T11:12:03;17.60;;;4.53;;
2023;SDS011;1016;48.770;9.154;2022-08-01T11:20:18;15.50;;;3.97;;
2023;SDS011;1016;48.770;9.154;2022-08-01T11:25:25;15.43;;;3.80;;
2023;SDS011;1016;48.770;9.154;2022-08-01T11:30:48;15.57;;;3.47;;
2023;SDS011;1016;48.770;9.154;2022-08-01T11:38:38;15.40;;;3.30;;
2023;SDS011;1016;48.770;9.154;2022-08-01T11:41:17;15.53;;;3.07;;
2023;SDS011;1016;48.770;9.154;2022-08-01T11:44:01;14.57;;;3.03;;
2023;SDS011;1016;48.770;9.154;2022-08-01T11:46:46;14.50;;;2.97;;
2023;SDS011;1016;48.770;9.154;2022-08-01T11:57:09;14.57;;;3.10;;
2023;SDS011;1016;48.770;9.154;2022-08-01T11:59:43;15.97;;;3.10;;
2023;SDS011;1016;48.770;9.154;2022-08-01T12:02:20;15.30;;;3.97;;
2023;SDS011;1016;48.770;9.154;2022-08-01T12:04:48;18.23;;;3.60;;
2023;SDS011;1016;48.770;9.154;2022-08-01T12:07:35;14.60;;;2.90;;
2023;SDS011;1016;48.770;9.154;2022-08-01T12:10:03;15.00;;;3.70;;
2023;SDS011;1016;48.770;9.154;2022-08-01T12:12:35;16.10;;;3.40;;
2023;SDS011;1016;48.770;9.154;2022-08-01T12:15:07;15.53;;;2.83;;
2023;SDS011;1016;48.770;9.154;2022-08-01T12:17:38;15.30;;;3.10;;
2023;SDS011;1016;48.770;9.154;2022-08-01T12:20:08;14.93;;;3.30;;
2023;SDS011;1016;48.770;9.154;2022-08-01T12:22:35;15.40;;;3.07;;
2023;SDS011;1016;48.770;9.154;2022-08-01T12:25:12;14.60;;;2.70;;
2023;SDS011;1016;48.770;9.154;2022-08-01T12:27:43;14.73;;;3.00;;
2023;SDS011;1016;48.770;9.154;2022-08-01T12:30:11;16.20;;;3.40;;
2023;SDS011;1016;48.770;9.154;2022-08-01T12:32:42;18.00;;;3.20;;
2023;SDS011;1016;48.770;9.154;2022-08-01T12:35:11;14.80;;;3.00;;
2023;SDS011;1016;48.770;9.154;2022-08-01T12:37:42;15.20;;;3.40;;
2023;SDS011;1016;48.770;9.154;2022-08-01T12:42:43;16.50;;;3.80;;
2023;SDS011;1016;48.770;9.154;2022-08-01T12:45:14;16.87;;;4.20;;
2023;SDS011;1016;48.770;9.154;2022-08-01T12:47:45;15.40;;;3.20;;
2023;SDS011;1016;48.770;9.154;2022-08-01T12:50:13;14.77;;;3.53;;
2023;SDS011;1016;48.770;9.154;2022-08-01T12:52:41;19.10;;;6.43;;
2023;SDS011;1016;48.770;9.154;2022-08-01T12:55:15;17.97;;;4.60;;
2023;SDS011;1016;48.770;9.154;2022-08-01T12:57:46;15.87;;;3.17;;
2023;SDS011;1016;48.770;9.154;2022-08-01T13:00:24;15.03;;;3.30;;
2023;SDS011;1016;48.770;9.154;2022-08-01T13:02:59;14.57;;;3.17;;
2023;SDS011;1016;48.770;9.154;2022-08-01T13:05:27;15.73;;;2.87;;
2023;SDS011;1016;48.770;9.154;2022-08-01T13:07:53;14.10;;;2.93;;
2023;SDS011;1016;48.770;9.154;2022-08-01T13:10:25;14.73;;;3.00;;
2023;SDS011;1016;48.770;9.154;2022-08-01T13:12:55;14.07;;;2.37;;
2023;SDS011;1016;48.770;9.154;2022-08-01T13:15:23;15.20;;;2.93;;
2023;SDS011;1016;48.770;9.154;2022-08-01T13:17:51;14.30;;;2.60;;
2023;SDS011;1016;48.770;9.154;2022-08-01T13:20:28;14.23;;;2.73;;
2023;SDS011;1016;48.770;9.154;2022-08-01T13:23:09;16.57;;;2.97;;
2023;SDS011;1016;48.770;9.154;2022-08-01T13:25:46;14.07;;;2.77;;
2023;SDS011;1016;48.770;9.154;2022-08-01T13:28:25;15.97;;;2.90;;
2023;SDS011;1016;48.770;9.154;2022-08-01T13:33:24;15.50;;;2.50;;
2023;SDS011;1016;48.770;9.154;2022-08-01T13:35:52;16.20;;;3.03;;
2023;SDS011;1016;48.770;9.154;2022-08-01T13:38:18;17.03;;;2.67;;
2023;SDS011;1016;48.770;9.154;2022-08-01T13:40:44;15.07;;;3.03;;
2023;SDS011;1016;48.770;9.154;2022-08-01T13:43:10;15.57;;;3.03;;
2023;SDS011;1016;48.770;9.154;2022-08-01T13:45:35;14.77;;;2.80;;
2023;SDS011;1016;48.770;9.154;2022-08-01T13:48:01;14.70;;;3.23;;
2023;SDS011;1016;48.770;9.154;2022-08-01T13:50:27;14.67;;;2.63;;
2023;SDS011;1016;48.770;9.154;2022-08-01T13:52:52;15.43;;;3.30;;
2023;SDS011;1016;48.770;9.154;2022-08-01T13:55:19;14.33;;;2.50;;
2023;SDS011;1016;48.770;9.154;2022-08-01T13:57:45;15.40;;;2.80;;
2023;SDS011;1016;48.770;9.154;2022-08-01T14:00:10;14.83;;;2.53;;
2023;SDS011;1016;48.770;9.154;2022-08-01T14:02:36;15.97;;;2.80;;
2023;SDS011;1016;48.770;9.154;2022-08-01T14:05:02;16.00;;;2.40;;
2023;SDS011;1016;48.770;9.154;2022-08-01T14:07:27;14.50;;;2.20;;
2023;SDS011;1016;48.770;9.154;2022-08-01T14:58:23;15.73;;;2.30;;
2023;SDS011;1016;48.770;9.154;2022-08-01T15:00:49;15.80;;;2.60;;
2023;SDS011;1016;48.770;9.154;2022-08-01T15:03:14;23.03;;;2.80;;
2023;SDS011;1016;48.770;9.154;2022-08-01T15:05:40;14.53;;;2.50;;
2023;SDS011;1016;48.770;9.154;2022-08-01T15:08:06;14.90;;;2.70;;
2023;SDS011;1016;48.770;9.154;2022-08-01T15:10:32;15.03;;;2.27;;
2023;SDS011;1016;48.770;9.154;2022-08-01T15:12:58;14.67;;;2.93;;
2023;SDS011;1016;48.770;9.154;2022-08-01T15:15:25;15.47;;;2.37;;
2023;SDS011;1016;48.770;9.154;2022-08-01T15:17:51;17.83;;;3.10;;
2023;SDS011;1016;48.770;9.154;2022-08-01T15:20:17;17.57;;;2.73;;
2023;SDS011;1016;48.770;9.154;2022-08-01T15:22:43;16.50;;;4.60;;
2023;SDS011;1016;48.770;9.154;2022-08-01T15:25:08;16.30;;;4.53;;
2023;SDS011;1016;48.770;9.154;2022-08-01T15:27:34;14.63;;;3.00;;
2023;SDS011;1016;48.770;9.154;2022-08-01T15:30:00;48.50;;;5.37;;
2023;SDS011;1016;48.770;9.154;2022-08-01T15:32:26;116.80;;;8.63;;
2023;SDS011;1016;48.770;9.154;2022-08-01T15:34:51;111.27;;;11.53;;
2023;SDS011;1016;48.770;9.154;2022-08-01T15:37:17;21.93;;;2.93;;
2023;SDS011;1016;48.770;9.154;2022-08-01T15:39:43;18.60;;;2.60;;
2023;SDS011;1016;48.770;9.154;2022-08-01T15:42:10;14.00;;;2.40;;
2023;SDS011;1016;48.770;9.154;2022-08-01T15:44:40;15.00;;;2.40;;
2023;SDS011;1016;48.770;9.154;2022-08-01T15:47:06;14.67;;;2.80;;
2023;SDS011;1016;48.770;9.154;2022-08-01T15:49:32;14.53;;;2.10;;
2023;SDS011;1016;48.770;9.154;2022-08-01T15:52:00;15.17;;;3.13;;
2023;SDS011;1016;48.770;9.154;2022-08-01T15:54:27;17.57;;;2.40;;
2023;SDS011;1016;48.770;9.154;2022-08-01T15:56:52;14.20;;;2.33;;
2023;SDS011;1016;48.770;9.154;2022-08-01T15:59:18;16.10;;;2.50;;
2023;SDS011;1016;48.770;9.154;2022-08-01T16:01:44;14.23;;;2.33;;
2023;SDS011;1016;48.770;9.154;2022-08-01T16:04:09;14.40;;;2.20;;
2023;SDS011;1016;48.770;9.154;2022-08-01T16:06:35;14.03;;;2.10;;
2023;SDS011;1016;48.770;9.154;2022-08-01T16:09:01;15.70;;;2.53;;
2023;SDS011;1016;48.770;9.154;2022-08-01T16:11:28;15.77;;;2.23;;
2023;SDS011;1016;48.770;9.154;2022-08-01T16:13:54;14.60;;;2.30;;
2023;SDS011;1016;48.770;9.154;2022-08-01T16:16:19;14.30;;;1.97;;
2023;SDS011;1016;48.770;9.154;2022-08-01T16:18:45;13.70;;;1.90;;
2023;SDS011;1016;48.770;9.154;2022-08-01T16:21:11;14.80;;;2.10;;
2023;SDS011;1016;48.770;9.154;2022-08-01T16:23:37;14.53;;;2.10;;
2023;SDS011;1016;48.770;9.154;2022-08-01T16:26:03;14.80;;;2.13;;
2023;SDS011;1016;48.770;9.154;2022-08-01T16:28:29;15.23;;;2.20;;
2023;SDS011;1016;48.770;9.154;2022-08-01T16:30:54;18.60;;;2.10;;
2023;SDS011;1016;48.770;9.154;2022-08-01T16:33:20;13.83;;;2.03;;
2023;SDS011;1016;48.770;9.154;2022-08-01T16:35:46;15.20;;;2.30;;
2023;SDS011;1016;48.770;9.154;2022-08-01T16:38:11;14.50;;;2.00;;
2023;SDS011;1016;48.770;9.154;2022-08-01T16:40:37;15.27;;;2.10;;
2023;SDS011;1016;48.770;9.154;2022-08-01T16:43:03;14.50;;;1.90;;
2023;SDS011;1016;48.770;9.154;2022-08-01T16:45:29;13.93;;;2.00;;
2023;SDS011;1016;48.770;9.154;2022-08-01T16:47:54;14.07;;;2.00;;
2023;SDS011;1016;48.770;9.154;2022-08-01T16:50:21;13.37;;;2.00;;